createdAt,value
2022-11-19T00:00:08.615Z,51.216160
2022-11-19T00:01:08.612Z,51.216148
2022-11-19T00:02:08.682Z,51.216175
2022-11-19T00:03:08.585Z,51.216183
2022-11-19T00:04:08.570Z,51.216148
2022-11-19T00:05:08.566Z,51.216049
2022-11-19T00:06:08.587Z,51.216084
2022-11-19T00:07:08.695Z,51.216019
2022-11-19T00:08:08.568Z,51.216061
2022-11-19T00:09:08.537Z,51.215847
2022-11-19T00:10:08.535Z,51.215748
2022-11-19T00:11:09.880Z,51.215927
2022-11-19T00:12:08.523Z,51.216221
2022-11-19T00:13:08.510Z,51.216183
2022-11-19T00:14:08.511Z,51.215912
2022-11-19T00:15:08.501Z,51.215969
2022-11-19T00:16:08.501Z,51.216045
2022-11-19T00:17:08.486Z,51.216145
2022-11-19T00:18:08.484Z,51.215832
2022-11-19T00:19:08.481Z,51.215828
2022-11-19T00:20:08.477Z,51.215874
2022-11-19T00:21:08.473Z,51.216114
2022-11-19T00:22:08.455Z,51.215973
2022-11-19T00:23:09.455Z,51.215981
2022-11-19T00:24:08.452Z,51.216072
2022-11-19T00:25:08.438Z,51.216324
2022-11-19T00:26:08.434Z,51.216202
2022-11-19T00:27:08.439Z,51.216133
2022-11-19T00:28:08.414Z,51.216076
2022-11-19T00:29:08.402Z,51.216080
2022-11-19T00:30:19.964Z,51.216015
2022-11-19T00:31:10.402Z,51.216034
2022-11-19T00:32:08.402Z,51.216034
2022-11-19T00:33:08.383Z,51.216053
2022-11-19T00:34:08.378Z,51.216087
2022-11-19T00:35:08.372Z,51.216072
2022-11-19T00:36:08.361Z,51.216003
2022-11-19T00:37:08.391Z,51.215908
2022-11-19T00:38:08.353Z,51.215992
2022-11-19T00:39:08.351Z,51.216084
2022-11-19T00:40:08.332Z,51.215939
2022-11-19T00:41:08.339Z,51.216030
2022-11-19T00:42:08.343Z,51.215897
2022-11-19T00:43:08.320Z,51.215824
2022-11-19T00:44:08.307Z,51.215752
2022-11-19T00:45:08.320Z,51.215858
2022-11-19T00:46:08.367Z,51.216045
2022-11-19T00:47:08.292Z,51.216042
2022-11-19T00:48:08.332Z,51.216038
2022-11-19T00:49:08.315Z,51.216019
2022-11-19T00:50:08.272Z,51.215958
2022-11-19T00:51:08.274Z,51.215874
2022-11-19T00:52:08.247Z,51.215870
2022-11-19T00:53:09.252Z,51.215832
2022-11-19T00:54:08.268Z,51.215862
2022-11-19T00:55:08.275Z,51.215996
2022-11-19T00:56:08.265Z,51.216003
2022-11-19T00:57:08.242Z,51.216156
2022-11-19T00:58:08.233Z,51.216057
2022-11-19T00:59:08.226Z,51.215935
2022-11-19T01:00:08.207Z,51.215805
2022-11-19T01:01:08.312Z,51.215691
2022-11-19T01:02:08.204Z,51.215847
2022-11-19T01:03:08.212Z,51.216045
2022-11-19T01:04:08.184Z,51.216122
2022-11-19T01:05:08.180Z,51.216084
2022-11-19T01:06:08.178Z,51.216080
2022-11-19T01:07:08.205Z,51.216084
2022-11-19T01:08:08.167Z,51.216114
2022-11-19T01:09:08.171Z,51.216110
2022-11-19T01:10:08.141Z,51.216141
2022-11-19T01:11:08.151Z,51.216084
2022-11-19T01:12:08.132Z,51.216084
2022-11-19T01:13:08.128Z,51.216030
2022-11-19T01:14:08.128Z,51.216019
2022-11-19T01:15:08.112Z,51.216084
2022-11-19T01:16:08.101Z,51.216095
2022-11-19T01:17:08.098Z,51.216137
2022-11-19T01:18:08.099Z,51.216152
2022-11-19T01:19:08.103Z,51.216076
2022-11-19T01:20:08.140Z,51.216175
2022-11-19T01:21:08.068Z,51.215958
2022-11-19T01:22:08.068Z,51.215977
2022-11-19T01:23:08.064Z,51.216030
2022-11-19T01:24:08.071Z,51.216003
2022-11-19T01:25:08.051Z,51.216095
2022-11-19T01:26:08.059Z,51.216095
2022-11-19T01:27:08.039Z,51.216034
2022-11-19T01:28:08.022Z,51.215862
2022-11-19T01:29:08.019Z,51.215733
2022-11-19T01:30:08.031Z,51.215744
2022-11-19T01:31:08.007Z,51.215939
2022-11-19T01:32:08.011Z,51.216084
2022-11-19T01:33:07.997Z,51.216061
2022-11-19T01:34:07.979Z,51.216091
2022-11-19T01:35:08.004Z,51.216038
2022-11-19T01:36:07.974Z,51.215832
2022-11-19T01:37:07.964Z,51.215950
2022-11-19T01:38:07.964Z,51.216156
2022-11-19T01:39:07.951Z,51.216125
2022-11-19T01:40:07.944Z,51.216160
2022-11-19T01:41:07.959Z,51.216202
2022-11-19T01:42:07.963Z,51.216171
2022-11-19T01:43:07.928Z,51.216087
2022-11-19T01:44:07.930Z,51.216114
2022-11-19T01:45:07.915Z,51.216118
2022-11-19T01:46:07.929Z,51.216148
2022-11-19T01:47:07.903Z,51.216183
2022-11-19T01:48:07.907Z,51.216171
2022-11-19T01:49:07.900Z,51.216202
2022-11-19T01:50:07.895Z,51.216164
2022-11-19T01:51:07.874Z,51.216000
2022-11-19T01:52:07.888Z,51.215950
2022-11-19T01:53:07.864Z,51.215958
2022-11-19T01:54:07.856Z,51.215809
2022-11-19T01:55:07.856Z,51.215992
2022-11-19T01:56:07.859Z,51.216152
2022-11-19T01:57:07.849Z,51.216080
2022-11-19T01:58:07.846Z,51.215977
2022-11-19T01:59:07.832Z,51.216042
2022-11-19T02:00:07.819Z,51.216068
2022-11-19T02:01:07.872Z,51.216042
2022-11-19T02:02:07.836Z,51.216057
2022-11-19T02:03:07.800Z,51.216118
2022-11-19T02:04:07.806Z,51.215885
2022-11-19T02:05:07.801Z,51.216064
2022-11-19T02:06:07.823Z,51.216095
2022-11-19T02:07:07.835Z,51.216042
2022-11-19T02:08:07.792Z,51.216057
2022-11-19T02:09:07.751Z,51.216084
2022-11-19T02:10:07.756Z,51.216049
2022-11-19T02:11:07.758Z,51.215908
2022-11-19T02:12:07.746Z,51.215927
2022-11-19T02:13:07.752Z,51.215996
2022-11-19T02:14:07.731Z,51.216068
2022-11-19T02:15:07.715Z,51.215969
2022-11-19T02:16:07.715Z,51.215973
2022-11-19T02:17:07.710Z,51.215977
2022-11-19T02:18:07.721Z,51.215977
2022-11-19T02:19:07.699Z,51.216076
2022-11-19T02:20:07.696Z,51.216091
2022-11-19T02:21:07.705Z,51.215931
2022-11-19T02:22:07.678Z,51.215927
2022-11-19T02:23:07.679Z,51.216103
2022-11-19T02:24:07.667Z,51.216068
2022-11-19T02:25:07.669Z,51.216049
2022-11-19T02:26:07.683Z,51.216038
2022-11-19T02:27:07.661Z,51.215946
2022-11-19T02:28:07.656Z,51.215992
2022-11-19T02:29:07.648Z,51.216057
2022-11-19T02:30:07.645Z,51.216045
2022-11-19T02:31:07.618Z,51.216053
2022-11-19T02:32:07.651Z,51.216045
2022-11-19T02:33:07.615Z,51.216103
2022-11-19T02:34:07.615Z,51.216034
2022-11-19T02:35:07.604Z,51.216084
2022-11-19T02:36:07.600Z,51.216110
2022-11-19T02:37:07.595Z,51.216133
2022-11-19T02:38:07.583Z,51.216114
2022-11-19T02:39:07.597Z,51.216175
2022-11-19T02:40:07.568Z,51.216045
2022-11-19T02:41:07.560Z,51.215992
2022-11-19T02:42:07.554Z,51.216103
2022-11-19T02:43:07.555Z,51.215832
2022-11-19T02:44:07.551Z,51.215946
2022-11-19T02:45:07.542Z,51.216026
2022-11-19T02:46:07.532Z,51.216061
2022-11-19T02:47:07.511Z,51.216122
2022-11-19T02:48:07.524Z,51.216118
2022-11-19T02:49:07.531Z,51.216034
2022-11-19T02:50:07.496Z,51.216030
2022-11-19T02:51:07.506Z,51.216022
2022-11-19T02:52:07.508Z,51.216019
2022-11-19T02:53:07.493Z,51.216099
2022-11-19T02:54:07.500Z,51.216137
2022-11-19T02:55:07.487Z,51.215992
2022-11-19T02:56:07.470Z,51.215973
2022-11-19T02:57:07.462Z,51.216099
2022-11-19T02:58:07.463Z,51.216110
2022-11-19T02:59:07.465Z,51.216106
2022-11-19T03:00:07.441Z,51.216160
2022-11-19T03:01:07.528Z,51.216137
2022-11-19T03:02:07.442Z,51.216145
2022-11-19T03:03:07.425Z,51.216206
2022-11-19T03:04:07.439Z,51.216114
2022-11-19T03:05:07.459Z,51.216125
2022-11-19T03:06:07.418Z,51.216076
2022-11-19T03:07:07.450Z,51.216011
2022-11-19T03:08:07.403Z,51.216019
2022-11-19T03:09:07.385Z,51.216072
2022-11-19T03:10:07.391Z,51.216080
2022-11-19T03:11:07.375Z,51.216106
2022-11-19T03:12:07.367Z,51.216118
2022-11-19T03:13:07.367Z,51.216110
2022-11-19T03:14:07.363Z,51.216091
2022-11-19T03:15:07.382Z,51.216167
2022-11-19T03:16:07.343Z,51.216099
2022-11-19T03:17:07.352Z,51.216114
2022-11-19T03:18:07.330Z,51.216118
2022-11-19T03:19:07.331Z,51.216106
2022-11-19T03:20:07.424Z,51.216122
2022-11-19T03:21:07.331Z,51.216118
2022-11-19T03:22:07.302Z,51.216084
2022-11-19T03:23:07.311Z,51.216156
2022-11-19T03:24:07.286Z,51.216194
2022-11-19T03:25:07.315Z,51.216042
2022-11-19T03:26:07.286Z,51.216106
2022-11-19T03:27:07.278Z,51.216064
2022-11-19T03:28:07.274Z,51.216099
2022-11-19T03:29:07.272Z,51.216133
2022-11-19T03:30:07.300Z,51.216110
2022-11-19T03:31:07.443Z,51.216122
2022-11-19T03:32:07.259Z,51.215996
2022-11-19T03:33:07.238Z,51.216072
2022-11-19T03:34:07.238Z,51.216080
2022-11-19T03:35:07.235Z,51.216053
2022-11-19T03:36:07.239Z,51.216125
2022-11-19T03:37:07.229Z,51.216057
2022-11-19T03:38:07.219Z,51.215973
2022-11-19T03:39:07.206Z,51.216194
2022-11-19T03:40:07.198Z,51.216164
2022-11-19T03:41:07.196Z,51.216007
2022-11-19T03:42:07.202Z,51.215988
2022-11-19T03:43:07.182Z,51.215927
2022-11-19T03:44:07.177Z,51.216053
2022-11-19T03:45:07.167Z,51.216015
2022-11-19T03:46:07.160Z,51.216202
2022-11-19T03:47:07.150Z,51.216156
2022-11-19T03:48:07.171Z,51.216179
2022-11-19T03:49:07.149Z,51.216080
2022-11-19T03:50:07.138Z,51.215988
2022-11-19T03:51:07.131Z,51.215923
2022-11-19T03:52:07.115Z,51.215961
2022-11-19T03:53:07.135Z,51.216148
2022-11-19T03:54:07.111Z,51.216160
2022-11-19T03:55:07.103Z,51.216007
2022-11-19T03:56:07.105Z,51.216061
2022-11-19T03:57:07.103Z,51.216118
2022-11-19T03:58:07.091Z,51.216103
2022-11-19T03:59:08.596Z,51.216141
2022-11-19T04:00:08.068Z,51.216164
2022-11-19T04:01:07.066Z,51.216080
2022-11-19T04:02:07.120Z,51.216087
2022-11-19T04:03:07.067Z,51.216042
2022-11-19T04:04:07.051Z,51.216049
2022-11-19T04:05:07.038Z,51.216072
2022-11-19T04:06:07.062Z,51.215977
2022-11-19T04:07:07.061Z,51.215729
2022-11-19T04:08:07.040Z,51.216331
2022-11-19T04:09:07.008Z,51.216259
2022-11-19T04:10:07.001Z,51.216225
2022-11-19T04:13:39.693Z,51.216202
2022-11-19T04:14:39.656Z,51.216011
2022-11-19T04:15:39.643Z,51.215981
2022-11-19T04:16:39.635Z,51.216148
2022-11-19T04:17:39.645Z,51.216148
2022-11-19T04:18:39.646Z,51.216137
2022-11-19T04:19:39.620Z,51.216103
2022-11-19T04:20:39.608Z,51.216171
2022-11-19T04:21:40.610Z,51.216076
2022-11-19T04:22:39.602Z,51.216053
2022-11-19T04:23:39.614Z,51.216167
2022-11-19T04:24:39.594Z,51.216217
2022-11-19T04:25:39.586Z,51.216217
2022-11-19T04:26:39.579Z,51.216091
2022-11-19T04:27:39.572Z,51.216152
2022-11-19T04:28:39.559Z,51.216179
2022-11-19T04:29:39.578Z,51.215981
2022-11-19T04:30:39.562Z,51.215958
2022-11-19T04:31:39.540Z,51.216087
2022-11-19T04:32:39.538Z,51.216099
2022-11-19T04:33:39.526Z,51.216164
2022-11-19T04:34:39.519Z,51.216179
2022-11-19T04:35:39.531Z,51.216011
2022-11-19T04:36:39.511Z,51.216015
2022-11-19T04:37:39.506Z,51.216095
2022-11-19T04:38:39.498Z,51.216114
2022-11-19T04:39:39.491Z,51.216026
2022-11-19T04:40:39.489Z,51.216129
2022-11-19T04:41:39.469Z,51.216087
2022-11-19T04:42:39.465Z,51.215977
2022-11-19T04:43:39.454Z,51.215954
2022-11-19T04:44:39.454Z,51.216019
2022-11-19T04:45:39.454Z,51.215981
2022-11-19T04:46:39.434Z,51.216007
2022-11-19T04:47:39.424Z,51.216068
2022-11-19T04:48:39.429Z,51.216057
2022-11-19T04:49:39.419Z,51.216000
2022-11-19T04:50:39.409Z,51.216022
2022-11-19T04:51:39.401Z,51.216015
2022-11-19T04:52:41.127Z,51.216110
2022-11-19T04:53:40.405Z,51.216217
2022-11-19T04:54:39.385Z,51.216198
2022-11-19T04:55:39.373Z,51.216217
2022-11-19T04:56:39.366Z,51.216137
2022-11-19T04:57:39.361Z,51.216110
2022-11-19T04:58:39.357Z,51.216064
2022-11-19T04:59:39.365Z,51.216118
2022-11-19T05:00:39.341Z,51.216064
2022-11-19T05:01:39.382Z,51.216164
2022-11-19T05:02:39.320Z,51.216087
2022-11-19T05:03:39.322Z,51.215950
2022-11-19T05:04:39.318Z,51.215961
2022-11-19T05:05:39.320Z,51.216064
2022-11-19T05:06:39.293Z,51.216148
2022-11-19T05:07:39.331Z,51.216019
2022-11-19T05:08:39.278Z,51.216087
2022-11-19T05:09:39.289Z,51.216076
2022-11-19T05:10:39.265Z,51.216072
2022-11-19T05:11:39.261Z,51.216057
2022-11-19T05:12:39.254Z,51.216026
2022-11-19T05:13:39.241Z,51.216103
2022-11-19T05:14:39.237Z,51.216106
2022-11-19T05:15:39.234Z,51.215858
2022-11-19T05:16:39.237Z,51.215828
2022-11-19T05:17:39.209Z,51.215752
2022-11-19T05:18:39.208Z,51.215797
2022-11-19T05:19:39.248Z,51.215893
2022-11-19T05:20:39.189Z,51.216030
2022-11-19T05:21:39.190Z,51.216148
2022-11-19T05:22:39.165Z,51.216206
2022-11-19T05:23:39.162Z,51.216194
2022-11-19T05:24:39.182Z,51.216202
2022-11-19T05:25:39.174Z,51.216076
2022-11-19T05:26:39.159Z,51.216080
2022-11-19T05:27:39.232Z,51.216042
2022-11-19T05:28:40.155Z,51.216110
2022-11-19T05:29:40.134Z,51.215965
2022-11-19T05:30:39.213Z,51.216068
2022-11-19T05:31:39.110Z,51.216106
2022-11-19T05:32:39.102Z,51.216110
2022-11-19T05:33:39.126Z,51.216103
2022-11-19T05:34:39.097Z,51.216129
2022-11-19T05:35:39.082Z,51.216122
2022-11-19T05:36:39.075Z,51.216106
2022-11-19T05:37:39.081Z,51.216122
2022-11-19T05:38:39.081Z,51.216137
2022-11-19T05:39:39.064Z,51.216053
2022-11-19T05:40:39.054Z,51.216087
2022-11-19T05:41:39.047Z,51.216133
2022-11-19T05:42:39.040Z,51.216080
2022-11-19T05:43:39.029Z,51.216160
2022-11-19T05:44:39.036Z,51.216042
2022-11-19T05:45:39.023Z,51.216011
2022-11-19T05:46:39.021Z,51.216019
2022-11-19T05:47:38.993Z,51.216145
2022-11-19T05:48:38.996Z,51.216095
2022-11-19T05:49:38.988Z,51.216152
2022-11-19T05:50:38.973Z,51.216019
2022-11-19T05:51:38.996Z,51.215973
2022-11-19T05:52:38.973Z,51.216110
2022-11-19T05:53:38.969Z,51.216095
2022-11-19T05:54:38.953Z,51.216057
2022-11-19T05:55:38.950Z,51.216045
2022-11-19T05:56:38.948Z,51.215965
2022-11-19T05:57:38.965Z,51.215931
2022-11-19T05:58:38.966Z,51.216064
2022-11-19T05:59:43.573Z,51.216255
2022-11-19T06:00:40.943Z,51.216095
2022-11-19T06:01:38.915Z,51.216228
2022-11-19T06:02:38.911Z,51.215855
2022-11-19T06:03:38.901Z,51.216068
2022-11-19T06:04:38.918Z,51.216114
2022-11-19T06:05:40.613Z,51.216057
2022-11-19T06:06:39.883Z,51.216019
2022-11-19T06:07:38.917Z,51.216068
2022-11-19T06:08:38.867Z,51.216042
2022-11-19T06:09:38.881Z,51.215958
2022-11-19T06:10:38.855Z,51.215832
2022-11-19T06:11:38.842Z,51.215675
2022-11-19T06:12:42.559Z,51.215843
2022-11-19T06:13:40.834Z,51.215931
2022-11-19T06:14:38.826Z,51.216194
2022-11-19T06:15:38.829Z,51.216045
2022-11-19T06:16:38.813Z,51.216068
2022-11-19T06:17:38.835Z,51.216091
2022-11-19T06:18:38.806Z,51.216190
2022-11-19T06:19:38.789Z,51.216194
2022-11-19T06:20:38.777Z,51.216110
2022-11-19T06:21:38.769Z,51.215908
2022-11-19T06:22:38.801Z,51.216057
2022-11-19T06:23:38.765Z,51.216167
2022-11-19T06:24:38.833Z,51.216125
2022-11-19T06:25:38.754Z,51.216309
2022-11-19T06:26:38.737Z,51.216263
2022-11-19T06:27:38.736Z,51.216545
2022-11-19T06:28:38.757Z,51.216187
2022-11-19T06:29:38.717Z,51.216015
2022-11-19T06:30:38.728Z,51.216114
2022-11-19T06:31:38.709Z,51.216084
2022-11-19T06:32:38.711Z,51.216011
2022-11-19T06:33:38.714Z,51.216034
2022-11-19T06:34:38.702Z,51.215908
2022-11-19T06:35:38.686Z,51.215698
2022-11-19T06:36:41.987Z,51.215862
2022-11-19T06:37:40.669Z,51.215965
2022-11-19T06:38:38.672Z,51.216053
2022-11-19T06:39:38.661Z,51.216026
2022-11-19T06:40:38.653Z,51.215801
2022-11-19T06:41:38.645Z,51.215706
2022-11-19T06:42:38.641Z,51.215687
2022-11-19T06:43:38.646Z,51.215725
2022-11-19T06:44:38.634Z,51.215912
2022-11-19T06:45:38.626Z,51.215969
2022-11-19T06:46:38.607Z,51.216011
2022-11-19T06:47:38.605Z,51.215878
2022-11-19T06:48:38.594Z,51.215622
2022-11-19T06:49:38.593Z,51.215786
2022-11-19T06:50:38.606Z,51.215511
2022-11-19T06:51:38.569Z,51.215641
2022-11-19T06:52:38.564Z,51.215591
2022-11-19T06:53:38.565Z,51.215763
2022-11-19T06:54:42.816Z,51.215691
2022-11-19T06:55:39.561Z,51.215954
2022-11-19T06:56:38.546Z,51.216007
2022-11-19T06:57:38.516Z,51.216183
2022-11-19T06:58:38.525Z,51.216145
2022-11-19T06:59:38.513Z,51.215935
2022-11-19T07:00:38.504Z,51.215832
2022-11-19T07:01:38.526Z,51.215694
2022-11-19T07:02:38.519Z,51.215992
2022-11-19T07:03:38.501Z,51.216011
2022-11-19T07:04:38.489Z,51.216022
2022-11-19T07:05:38.480Z,51.216064
2022-11-19T07:06:38.462Z,51.216175
2022-11-19T07:07:38.518Z,51.216251
2022-11-19T07:08:38.459Z,51.216358
2022-11-19T07:09:38.438Z,51.216286
2022-11-19T07:10:38.441Z,51.216026
2022-11-19T07:11:38.439Z,51.215969
2022-11-19T07:12:38.435Z,51.216015
2022-11-19T07:13:38.461Z,51.216152
2022-11-19T07:14:38.427Z,51.216301
2022-11-19T07:15:38.409Z,51.216305
2022-11-19T07:16:38.411Z,51.216145
2022-11-19T07:17:38.398Z,51.216068
2022-11-19T07:18:38.397Z,51.215935
2022-11-19T07:19:38.392Z,51.215961
2022-11-19T07:20:38.378Z,51.215878
2022-11-19T07:21:38.358Z,51.215645
2022-11-19T07:22:38.368Z,51.215855
2022-11-19T07:23:38.347Z,51.215973
2022-11-19T07:24:38.354Z,51.216080
2022-11-19T07:25:38.333Z,51.215954
2022-11-19T07:26:38.328Z,51.216194
2022-11-19T07:27:38.310Z,51.216213
2022-11-19T07:28:38.313Z,51.216000
2022-11-19T07:29:38.314Z,51.215874
2022-11-19T07:30:38.306Z,51.215931
2022-11-19T07:31:38.285Z,51.215969
2022-11-19T07:32:38.281Z,51.216179
2022-11-19T07:33:38.278Z,51.216076
2022-11-19T07:34:38.291Z,51.216129
2022-11-19T07:35:38.261Z,51.216339
2022-11-19T07:36:38.254Z,51.216148
2022-11-19T07:37:38.253Z,51.216114
2022-11-19T07:38:38.261Z,51.216259
2022-11-19T07:39:38.258Z,51.216187
2022-11-19T07:40:38.226Z,51.216156
2022-11-19T07:41:38.233Z,51.216396
2022-11-19T07:42:38.209Z,51.216469
2022-11-19T07:43:38.213Z,51.216385
2022-11-19T07:44:38.197Z,51.216408
2022-11-19T07:45:38.201Z,51.216236
2022-11-19T07:46:38.181Z,51.216232
2022-11-19T07:47:38.181Z,51.216236
2022-11-19T07:48:38.170Z,51.216213
2022-11-19T07:49:38.157Z,51.216206
2022-11-19T07:50:38.180Z,51.216152
2022-11-19T07:51:38.153Z,51.216087
2022-11-19T07:52:38.137Z,51.216114
2022-11-19T07:53:38.133Z,51.216152
2022-11-19T07:54:38.130Z,51.216164
2022-11-19T07:55:38.121Z,51.216099
2022-11-19T07:56:38.130Z,51.216351
2022-11-19T07:57:38.110Z,51.216225
2022-11-19T07:58:38.099Z,51.216244
2022-11-19T07:59:38.102Z,51.216145
2022-11-19T08:00:38.105Z,51.216103
2022-11-19T08:01:38.171Z,51.216084
2022-11-19T08:02:38.077Z,51.216122
2022-11-19T08:03:38.090Z,51.216122
2022-11-19T08:04:38.087Z,51.216209
2022-11-19T08:05:38.053Z,51.216209
2022-11-19T08:06:38.065Z,51.215790
2022-11-19T08:07:38.136Z,51.216034
2022-11-19T08:08:38.045Z,51.216053
2022-11-19T08:09:38.030Z,51.216080
2022-11-19T08:10:38.013Z,51.216198
2022-11-19T08:11:38.033Z,51.216244
2022-11-19T08:12:38.037Z,51.216171
2022-11-19T08:13:38.005Z,51.216160
2022-11-19T08:14:38.015Z,51.216175
2022-11-19T08:15:37.997Z,51.216167
2022-11-19T08:16:37.984Z,51.216194
2022-11-19T08:17:37.994Z,51.216091
2022-11-19T08:18:37.980Z,51.216072
2022-11-19T08:19:37.965Z,51.216106
2022-11-19T08:20:37.967Z,51.216114
2022-11-19T08:21:37.950Z,51.216209
2022-11-19T08:22:37.963Z,51.216339
2022-11-19T08:23:37.939Z,51.216328
2022-11-19T08:24:37.934Z,51.216152
2022-11-19T08:25:37.921Z,51.216064
2022-11-19T08:26:37.917Z,51.215992
2022-11-19T08:27:37.916Z,51.215996
2022-11-19T08:28:37.910Z,51.216118
2022-11-19T08:29:37.893Z,51.216187
2022-11-19T08:30:37.893Z,51.216137
2022-11-19T08:31:37.894Z,51.216087
2022-11-19T08:32:37.872Z,51.216084
2022-11-19T08:33:37.896Z,51.216068
2022-11-19T08:34:37.858Z,51.216099
2022-11-19T08:35:37.856Z,51.216125
2022-11-19T08:36:37.857Z,51.216164
2022-11-19T08:37:37.846Z,51.216068
2022-11-19T08:38:38.997Z,51.216053
2022-11-19T08:39:38.858Z,51.216183
2022-11-19T08:40:37.813Z,51.216206
2022-11-19T08:41:37.817Z,51.216225
2022-11-19T08:42:37.814Z,51.216194
2022-11-19T08:43:37.797Z,51.216232
2022-11-19T08:44:37.808Z,51.216232
2022-11-19T08:45:37.789Z,51.215984
2022-11-19T08:46:37.781Z,51.216038
2022-11-19T08:47:37.768Z,51.216076
2022-11-19T08:48:37.768Z,51.216068
2022-11-19T08:49:37.817Z,51.216038
2022-11-19T08:50:37.756Z,51.216103
2022-11-19T08:51:37.752Z,51.216148
2022-11-19T08:52:37.739Z,51.216110
2022-11-19T08:53:37.737Z,51.216164
2022-11-19T08:54:37.747Z,51.216278
2022-11-19T08:55:37.740Z,51.216190
2022-11-19T08:56:37.704Z,51.216202
2022-11-19T08:57:37.703Z,51.216160
2022-11-19T08:58:37.692Z,51.216152
2022-11-19T08:59:37.692Z,51.216129
2022-11-19T09:00:37.775Z,51.216167
2022-11-19T09:01:37.672Z,51.216141
2022-11-19T09:02:37.668Z,51.216118
2022-11-19T09:03:37.660Z,51.216171
2022-11-19T09:04:37.656Z,51.216148
2022-11-19T09:05:37.656Z,51.216171
2022-11-19T09:06:37.643Z,51.216171
2022-11-19T09:07:37.699Z,51.216164
2022-11-19T09:08:37.638Z,51.216141
2022-11-19T09:09:37.628Z,51.216049
2022-11-19T09:10:37.612Z,51.215977
2022-11-19T09:11:42.397Z,51.216022
2022-11-19T09:12:39.607Z,51.215988
2022-11-19T09:13:37.591Z,51.215958
2022-11-19T09:14:37.590Z,51.216095
2022-11-19T09:15:37.588Z,51.216099
2022-11-19T09:16:37.580Z,51.216080
2022-11-19T09:17:40.177Z,51.216068
2022-11-19T09:18:38.564Z,51.216091
2022-11-19T09:19:37.555Z,51.216125
2022-11-19T09:20:37.591Z,51.216194
2022-11-19T09:21:37.562Z,51.216198
2022-11-19T09:22:37.541Z,51.216122
2022-11-19T09:23:37.531Z,51.216160
2022-11-19T09:24:37.532Z,51.216194
2022-11-19T09:25:37.525Z,51.216331
2022-11-19T09:26:37.538Z,51.216343
2022-11-19T09:27:37.517Z,51.216312
2022-11-19T09:28:37.504Z,51.216213
2022-11-19T09:29:37.499Z,51.216190
2022-11-19T09:30:37.489Z,51.216095
2022-11-19T09:31:37.501Z,51.216118
2022-11-19T09:32:37.483Z,51.216129
2022-11-19T09:33:37.467Z,51.216259
2022-11-19T09:34:37.461Z,51.216267
2022-11-19T09:35:37.439Z,51.216270
2022-11-19T09:36:37.456Z,51.215961
2022-11-19T09:37:37.432Z,51.215954
2022-11-19T09:38:37.428Z,51.215958
2022-11-19T09:39:37.440Z,51.216011
2022-11-19T09:40:37.408Z,51.216019
2022-11-19T09:41:37.408Z,51.216053
2022-11-19T09:42:37.396Z,51.216053
2022-11-19T09:43:37.390Z,51.216022
2022-11-19T09:44:37.387Z,51.216045
2022-11-19T09:45:37.372Z,51.216106
2022-11-19T09:46:37.371Z,51.216232
2022-11-19T09:47:37.375Z,51.216179
2022-11-19T09:48:37.366Z,51.216171
2022-11-19T09:49:37.348Z,51.216053
2022-11-19T09:50:37.348Z,51.216053
2022-11-19T09:51:37.350Z,51.215897
2022-11-19T09:52:37.342Z,51.216030
2022-11-19T09:53:37.331Z,51.216198
2022-11-19T09:54:37.340Z,51.216091
2022-11-19T09:55:37.323Z,51.216030
2022-11-19T09:56:37.310Z,51.216080
2022-11-19T09:57:37.313Z,51.216221
2022-11-19T09:58:37.312Z,51.216114
2022-11-19T09:59:37.306Z,51.216152
2022-11-19T10:00:37.289Z,51.216064
2022-11-19T10:01:38.299Z,51.216057
2022-11-19T10:02:37.353Z,51.215931
2022-11-19T10:03:37.258Z,51.215950
2022-11-19T10:04:37.259Z,51.216106
2022-11-19T10:05:37.259Z,51.215836
2022-11-19T10:06:37.263Z,51.215893
2022-11-19T10:07:37.261Z,51.216076
2022-11-19T10:08:37.238Z,51.215927
2022-11-19T10:09:37.231Z,51.215996
2022-11-19T10:10:37.222Z,51.216122
2022-11-19T10:11:37.210Z,51.215942
2022-11-19T10:12:37.202Z,51.216022
2022-11-19T10:13:37.219Z,51.216045
2022-11-19T10:14:37.195Z,51.215874
2022-11-19T10:15:38.058Z,51.215988
2022-11-19T10:16:38.199Z,51.215752
2022-11-19T10:17:37.181Z,51.216080
2022-11-19T10:18:37.177Z,51.216167
2022-11-19T10:19:37.208Z,51.216103
2022-11-19T10:20:37.159Z,51.216160
2022-11-19T10:21:37.164Z,51.216080
2022-11-19T10:22:37.140Z,51.216106
2022-11-19T10:23:37.142Z,51.216061
2022-11-19T10:24:37.135Z,51.216160
2022-11-19T10:25:37.127Z,51.216076
2022-11-19T10:26:37.131Z,51.216091
2022-11-19T10:27:37.151Z,51.216026
2022-11-19T10:28:37.099Z,51.215992
2022-11-19T10:29:37.102Z,51.215942
2022-11-19T10:30:37.088Z,51.215981
2022-11-19T10:31:37.084Z,51.215946
2022-11-19T10:32:37.094Z,51.215881
2022-11-19T10:33:37.079Z,51.216003
2022-11-19T10:34:37.074Z,51.216045
2022-11-19T10:35:37.067Z,51.216061
2022-11-19T10:36:37.055Z,51.216061
2022-11-19T10:37:37.052Z,51.216064
2022-11-19T10:38:37.052Z,51.216187
2022-11-19T10:39:37.028Z,51.216057
2022-11-19T10:40:37.035Z,51.216095
2022-11-19T10:41:37.040Z,51.216042
2022-11-19T10:42:37.045Z,51.216072
2022-11-19T10:43:37.012Z,51.216034
2022-11-19T10:44:37.036Z,51.215973
2022-11-19T10:45:36.999Z,51.215996
2022-11-19T10:46:37.003Z,51.216053
2022-11-19T10:47:36.995Z,51.216080
2022-11-19T10:48:36.987Z,51.216053
2022-11-19T10:49:37.007Z,51.216003
2022-11-19T10:50:36.976Z,51.216022
2022-11-19T10:51:36.975Z,51.216118
2022-11-19T10:52:36.962Z,51.216110
2022-11-19T10:53:36.959Z,51.216061
2022-11-19T10:54:36.975Z,51.216068
2022-11-19T10:55:36.930Z,51.216057
2022-11-19T10:56:36.939Z,51.216072
2022-11-19T10:57:36.963Z,51.216053
2022-11-19T10:58:36.926Z,51.216011
2022-11-19T10:59:36.915Z,51.216049
2022-11-19T11:00:36.932Z,51.216034
2022-11-19T11:01:36.922Z,51.216042
2022-11-19T11:02:36.927Z,51.216084
2022-11-19T11:03:36.902Z,51.216084
2022-11-19T11:04:36.894Z,51.215977
2022-11-19T11:05:37.831Z,51.216084
2022-11-19T11:06:36.884Z,51.216038
2022-11-19T11:07:36.952Z,51.215847
2022-11-19T11:08:36.872Z,51.215946
2022-11-19T11:09:36.859Z,51.215946
2022-11-19T11:10:36.854Z,51.216049
2022-11-19T11:11:36.857Z,51.216007
2022-11-19T11:12:36.851Z,51.216114
2022-11-19T11:13:36.850Z,51.216049
2022-11-19T11:14:36.828Z,51.215965
2022-11-19T11:15:36.823Z,51.216137
2022-11-19T11:16:37.963Z,51.216068
2022-11-19T11:17:37.835Z,51.216064
2022-11-19T11:18:36.802Z,51.216076
2022-11-19T11:19:36.846Z,51.216125
2022-11-19T11:20:36.791Z,51.216152
2022-11-19T11:21:36.808Z,51.216125
2022-11-19T11:22:36.772Z,51.216064
2022-11-19T11:23:36.799Z,51.216118
2022-11-19T11:24:36.765Z,51.216148
2022-11-19T11:25:36.755Z,51.216148
2022-11-19T11:26:36.766Z,51.216099